We use own and third party cookies to improve our services by analyzing your browsing habits. If you continue, we'll assume that you accept its use. You can find more information here.

IMAG is an indoor projector family for accent lighting. It is available in 3 versions: for three-phase track, wall or ceiling mounting and LED powered to AC current directly.  Models for COB LED, with luminous packages of approximately 1,400, 2,000, 3,000, 4,000 and 5,000 lm with warm or neutral white colour temperature also with Vibrant White technology with different levels of luminous flux. With Spot, Medium Flood, Flood and Wide Flood optics.

Made of lacquered aluminium injection, high purity aluminium reflector and heat sink for a proper thermal management. Available in 2 finishes: texturized white and texturized graphite.

Light applications

Products

Imag g2 track
CodeWCRIlmGearFinishinglmGear
1084309218º30W3000ºK803489-Graphite4000Non-adjustable
1084309018º30W3000ºK803489-White4000Non-adjustable
1084308233º26W3000ºK802662-Graphite3000Non-adjustable
1084308033º26W3000ºK802662-White3000Non-adjustable
1084307222º26W3000ºK802646-Graphite3000Non-adjustable
1084307022º26W3000ºK802646-White3000Non-adjustable
1084306216º26W3000ºK802493-Graphite3000Non-adjustable
1084306016º26W3000ºK802493-White3000Non-adjustable
1084305233º15W3000ºK801798-Graphite2000Non-adjustable
1084305033º15W3000ºK801798-White2000Non-adjustable
1084304222º15W3000ºK801787-Graphite2000Non-adjustable
1084304022º15W3000ºK801787-White2000Non-adjustable
1084303216º15W3000ºK801684-Graphite2000Non-adjustable
1084303016º15W3000ºK801684-White2000Non-adjustable
1084311235º30W3000ºK803689-Graphite4000Non-adjustable
1084311035º30W3000ºK803689-White4000Non-adjustable
1084310224º30W3000ºK803600-Graphite4000Non-adjustable
1084310024º30W3000ºK803600-White4000Non-adjustable
1084328236º44W3000ºK804783-Graphite5000Non-adjustable
1084328036º44W3000ºK804783-White5000Non-adjustable
1084327226º44W3000ºK804795-Graphite5000Non-adjustable
1084327026º44W3000ºK804795-White5000Non-adjustable
1084326220º44W3000ºK804699-Graphite5000Non-adjustable
1084326020º44W3000ºK804699-White5000Non-adjustable
1084355256º30W3000ºK803732-Graphite4000Non-adjustable
1084355056º30W3000ºK803732-White4000Non-adjustable
1084353257º26W3000ºK802984-Graphite3000Non-adjustable
1084353057º26W3000ºK802984-White3000Non-adjustable
1084351257º15W3000ºK802016-Graphite2000Non-adjustable
1084351057º15W3000ºK802016-White2000Non-adjustable
1084409218º30W4000ºK803800-Graphite4000Non-adjustable
1084409018º30W4000ºK803800-White4000Non-adjustable
1084408233º26W4000ºK802859-Graphite3000Non-adjustable
1084408033º26W4000ºK802859-White3000Non-adjustable
1084407222º26W4000ºK802845-Graphite3000Non-adjustable
1084407022º26W4000ºK802845-White3000Non-adjustable
1084406216º26W4000ºK802715-Graphite3000Non-adjustable
1084406016º26W4000ºK802715-White3000Non-adjustable
1084405233º15W4000ºK801922-Graphite2000Non-adjustable
1084405033º15W4000ºK801922-White2000Non-adjustable
1084404222º15W4000ºK801910-Graphite2000Non-adjustable
1084404022º15W4000ºK801910-White2000Non-adjustable
1084403216º15W4000ºK801800-Graphite2000Non-adjustable
1084403016º15W4000ºK801800-White2000Non-adjustable
1084456256º44W4000ºK805047-Graphite5000Non-adjustable
1084456056º44W4000ºK805047-White5000Non-adjustable
1084455256º30W4000ºK804057-Graphite4000Non-adjustable
1084455056º30W4000ºK804057-White4000Non-adjustable
1084453257º26W4000ºK803108-Graphite3000Non-adjustable
1084453057º26W4000ºK803108-White3000Non-adjustable
1084451257º15W4000ºK802100-Graphite2000Non-adjustable
1084451057º15W4000ºK802100-White2000Non-adjustable
1084428236º44W4000ºK804893-Graphite5000Non-adjustable
1084428036º44W4000ºK804893-White5000Non-adjustable
1084427226º44W4000ºK804964-Graphite5000Non-adjustable
1084427026º44W4000ºK804964-White5000Non-adjustable
1084426220º44W4000ºK804895-Graphite5000Non-adjustable
1084426020º44W4000ºK804895-White5000Non-adjustable
1084411235º30W4000ºK804017-Graphite4000Non-adjustable
1084411035º30W4000ºK804017-White4000Non-adjustable
1084410224º30W4000ºK803920-Graphite4000Non-adjustable
1084410024º30W4000ºK803920-White4000Non-adjustable
1084356256º44W3000ºK804845-Graphite5000Non-adjustable
1084356056º44W3000ºK804845-White5000Non-adjustable
1088408233º26W4000ºK802859DALIGraphite3000Adjustable DALI
1088408033º26W4000ºK802859DALIWhite3000Adjustable DALI
1088407222º26W4000ºK802845DALIGraphite3000Adjustable DALI
1088407022º26W4000ºK802845DALIWhite3000Adjustable DALI
1088406216º26W4000ºK802715DALIGraphite3000Adjustable DALI
1088406016º26W4000ºK802715DALIWhite3000Adjustable DALI
1088405233º15W4000ºK801922DALIGraphite2000Adjustable DALI
1088405033º15W4000ºK801922DALIWhite2000Adjustable DALI
1088404222º15W4000ºK801910DALIGraphite2000Adjustable DALI
1088404022º15W4000ºK801910DALIWhite2000Adjustable DALI
1088403216º15W4000ºK801800DALIGraphite2000Adjustable DALI
1088403016º15W4000ºK801800DALIWhite2000Adjustable DALI
1088325233º30W3000ºK902822DALIGraphite3000Adjustable DALI
1088325033º30W3000ºK902822DALIWhite3000Adjustable DALI
1088324222º30W3000ºK902805DALIGraphite3000Adjustable DALI
1088324022º30W3000ºK902805DALIWhite3000Adjustable DALI
1088323216º30W3000ºK902643DALIGraphite3000Adjustable DALI
1088323016º30W3000ºK902643DALIWhite3000Adjustable DALI
1088322233º19W3000ºK901957DALIGraphite2000Adjustable DALI
1088322033º19W3000ºK901957DALIWhite2000Adjustable DALI
1088321222º19W3000ºK901945DALIGraphite2000Adjustable DALI
1088321022º19W3000ºK901945DALIWhite2000Adjustable DALI
1088320216º19W3000ºK901833DALIGraphite2000Adjustable DALI
1088320016º19W3000ºK901833DALIWhite2000Adjustable DALI
1088308233º26W3000ºK802662DALIGraphite3000Adjustable DALI
1088308033º26W3000ºK802662DALIWhite3000Adjustable DALI
1088307222º26W3000ºK802646DALIGraphite3000Adjustable DALI
1088307022º26W3000ºK802646DALIWhite3000Adjustable DALI
1088306216º26W3000ºK802493DALIGraphite3000Adjustable DALI
1088306016º26W3000ºK802493DALIWhite3000Adjustable DALI
1088305233º15W3000ºK801798DALIGraphite2000Adjustable DALI
1088305033º15W3000ºK801798DALIWhite2000Adjustable DALI
1088304222º15W3000ºK801787DALIGraphite2000Adjustable DALI
1088304022º15W3000ºK801787DALIWhite2000Adjustable DALI
1088303216º15W3000ºK801684DALIGraphite2000Adjustable DALI
1088303016º15W3000ºK801684DALIWhite2000Adjustable DALI
1084402233º9W4000ºK801248-Graphite1200Non-adjustable
1084402033º9W4000ºK801248-White1200Non-adjustable
1084401222º9W4000ºK801240-Graphite1200Non-adjustable
1084401022º9W4000ºK801240-White1200Non-adjustable
1084400216º9W4000ºK801168-Graphite1200Non-adjustable
1084400016º9W4000ºK801168-White1200Non-adjustable
1084325033º30W3000ºK902822-White3000Non-adjustable
1084324222º30W3000ºK902805-Graphite3000Non-adjustable
1084324022º30W3000ºK902805-White3000Non-adjustable
1084323216º30W3000ºK902643-Graphite3000Non-adjustable
1084323016º30W3000ºK902643-White3000Non-adjustable
1084322233º19W3000ºK901957-Graphite2000Non-adjustable
1084322033º19W3000ºK901957-White2000Non-adjustable
1084321222º19W3000ºK901945-Graphite2000Non-adjustable
1084321022º19W3000ºK901945-White2000Non-adjustable
1084320216º19W3000ºK901833-Graphite2000Non-adjustable
1084320016º19W3000ºK901833-White2000Non-adjustable
1084302233º9W3000ºK801167-Graphite1200Non-adjustable
1084302033º9W3000ºK801167-White1200Non-adjustable
1084301222º9W3000ºK801160-Graphite1200Non-adjustable
1084301022º9W3000ºK801160-White1200Non-adjustable
1084300216º9W3000ºK801093-Graphite1200Non-adjustable
1084300016º9W3000ºK801093-White1200Non-adjustable
1084325233º30W3000ºK902822-Graphite3000Non-adjustable
Imag g2 surface
CodeWCRIlmGearFinishinglmGear
1084333016º15W3000ºK801684-White2000Non-adjustable
1084333216º15W3000ºK801684-Graphite2000Non-adjustable
1084433016º15W4000ºK801800-White2000Non-adjustable
1084433216º15W4000ºK801800-Graphite2000Non-adjustable
1084336016º26W3000ºK802493-White3000Non-adjustable
1084336216º26W3000ºK802493-Graphite3000Non-adjustable
1084436016º26W4000ºK802715-White3000Non-adjustable
1084436216º26W4000ºK802715-Graphite3000Non-adjustable
1084339018º30W3000ºK803489-White4000Non-adjustable
1084339218º30W3000ºK803489-Graphite4000Non-adjustable
1084439018º30W4000ºK803800-White4000Non-adjustable
1084439218º30W4000ºK803800-Graphite4000Non-adjustable
1084342020º44W3000ºK804699-White5000Non-adjustable
1084342220º44W3000ºK804699-Graphite5000Non-adjustable
1084442020º44W4000ºK804895-White5000Non-adjustable
1084442220º44W4000ºK804895-Graphite5000Non-adjustable
1084334022º15W3000ºK801787-White2000Non-adjustable
1084334222º15W3000ºK801787-Graphite2000Non-adjustable
1084434022º15W4000ºK801910-White2000Non-adjustable
1084434222º15W4000ºK801910-Graphite2000Non-adjustable
1084337022º26W3000ºK802646-White3000Non-adjustable
1084337222º26W3000ºK802646-Graphite3000Non-adjustable
1084437022º26W4000ºK802845-White3000Non-adjustable
1084437222º26W4000ºK802845-Graphite3000Non-adjustable
1084340024º30W3000ºK803600-White4000Non-adjustable
1084340224º30W3000ºK803600-Graphite4000Non-adjustable
1084440024º30W4000ºK803920-White4000Non-adjustable
1084440224º30W4000ºK803920-Graphite4000Non-adjustable
1084343026º44W3000ºK804795-White5000Non-adjustable
1084343226º44W3000ºK804795-Graphite5000Non-adjustable
1084443026º44W4000ºK804964-White5000Non-adjustable
1084443226º44W4000ºK804964-Graphite5000Non-adjustable
1084335033º15W3000ºK801798-White2000Non-adjustable
1084335233º15W3000ºK801798-Graphite2000Non-adjustable
1084435033º15W4000ºK801922-White2000Non-adjustable
1084435233º15W4000ºK801922-Graphite2000Non-adjustable
1084338033º26W3000ºK802662-White3000Non-adjustable
1084338233º26W3000ºK802662-Graphite3000Non-adjustable
1084438033º26W4000ºK802859-White3000Non-adjustable
1084438233º26W4000ºK802859-Graphite3000Non-adjustable
1084341035º30W3000ºK803689-White4000Non-adjustable
1084341235º30W3000ºK803689-Graphite4000Non-adjustable
1084441035º30W4000ºK804017-White4000Non-adjustable
1084441235º30W4000ºK804017-Graphite4000Non-adjustable
1084344036º44W3000ºK804783-White5000Non-adjustable
1084344236º44W3000ºK804783-Graphite5000Non-adjustable
1084444036º44W4000ºK804893-White5000Non-adjustable
1084444236º44W4000ºK804893-Graphite5000Non-adjustable
1084361057º15W3000ºK802016-White2000Non-adjustable
1084361257º15W3000ºK802016-Graphite2000Non-adjustable
1084461057º15W4000ºK802100-White2000Non-adjustable
1084461257º15W4000ºK802100-Graphite2000Non-adjustable
1084362057º26W3000ºK802984-White3000Non-adjustable
1084462057º26W4000ºK803108-White3000Non-adjustable
1084462257º26W4000ºK803108-Graphite3000Non-adjustable
1084363056º30W3000ºK803732-White4000Non-adjustable
1084363256º30W3000ºK803732-Graphite4000Non-adjustable
1084463056º30W4000ºK804057-White4000Non-adjustable
1084463256º30W4000ºK804057-Graphite4000Non-adjustable
1084364056º44W3000ºK804845-White5000Non-adjustable
1084364256º44W3000ºK804845-Graphite5000Non-adjustable
1084464056º44W4000ºK805047-White5000Non-adjustable
1084464256º44W4000ºK805047-Graphite5000Non-adjustable
1084432233º9W4000ºK801248-Graphite1200Non-adjustable
1084432033º9W4000ºK801248-White1200Non-adjustable
1084431222º9W4000ºK801240-Graphite1200Non-adjustable
1084431022º9W4000ºK801240-White1200Non-adjustable
1084430216º9W4000ºK801168-Graphite1200Non-adjustable
1084430016º9W4000ºK801168-White1200Non-adjustable
1084362257º26W3000ºK802984-Graphite3000Non-adjustable
1084332233º9W3000ºK801167-Graphite1200Non-adjustable
1084332033º9W3000ºK801167-White1200Non-adjustable
1084331222º9W3000ºK801160-Graphite1200Non-adjustable
1084331022º9W3000ºK801160-White1200Non-adjustable
1084330216º9W3000ºK801093-Graphite1200Non-adjustable
1084330016º9W3000ºK801093-White1200Non-adjustable
Imag direct
CodeWCRIlmGearFinishinglmGear
1080304023º20W3000ºK801691Without gear (main supply)White2000Without gear (main supply)
1080304223º20W3000ºK801691Without gear (main supply)Graphite2000Without gear (main supply)
1080404023º20W4000ºK801789Without gear (main supply)White2000Without gear (main supply)
1080404223º20W4000ºK801789Without gear (main supply)Graphite2000Without gear (main supply)
1080307030º30W3000ºK802534Without gear (main supply)White3000Without gear (main supply)
1080307230º30W3000ºK802534Without gear (main supply)Graphite3000Without gear (main supply)
1080407030º30W4000ºK802680Without gear (main supply)White3000Without gear (main supply)
1080407230º30W4000ºK802680Without gear (main supply)Graphite3000Without gear (main supply)
1080305033º20W3000ºK801722Without gear (main supply)White2000Without gear (main supply)
1080305233º20W3000ºK801722Without gear (main supply)Graphite2000Without gear (main supply)
1080405033º20W4000ºK801822Without gear (main supply)White2000Without gear (main supply)
1080405233º20W4000ºK801822Without gear (main supply)Graphite2000Without gear (main supply)
1080308040º30W3000ºK802559Without gear (main supply)White3000Without gear (main supply)
1080308240º30W3000ºK802559Without gear (main supply)Graphite3000Without gear (main supply)
1080408040º30W4000ºK802707Without gear (main supply)White3000Without gear (main supply)
1080408240º30W4000ºK802707Without gear (main supply)Graphite3000Without gear (main supply)

No results found for the current filters.

Installations

Restaurant Crosta

Restaurant Crosta

Barcelona,Spain
SVD sivasdescalzo

SVD sivasdescalzo

Madrid,Spain
Museo MECA

Museo MECA

Aguascalientes,Mexico
Restaurante OhBo

OhBo Restaurant

Barcelona,Spain
Centro comercial Mayorca

Centro comercial Mayorca

Medellin,Colombia